Time;durP1;ratioP1;P1;durP2;ratioP2;P2;SDS_P1;SDS_P2;PMS_P1;PMS_P2;Temp;Humidity;BMP_temperature;BMP_pressure;BME280_temperature;BME280_humidity;BME280_pressure;Samples;Min_cycle;Max_cycle;Signal;HPM_P1;HPM_P2
2023/07/03 00:00:01;;;;;;;18.50;6.80;;;;;;;23.81;42.73;100998.34;4998783;28;20054;-33
2023/07/03 00:02:27;;;;;;;14.32;5.93;;;;;;;23.80;42.42;100989.41;5004453;28;20397;-32
2023/07/03 00:04:54;;;;;;;15.90;6.68;;;;;;;23.79;42.39;100990.41;5004158;28;20053;-33
2023/07/03 00:07:21;;;;;;;17.50;6.72;;;;;;;23.79;42.46;100993.09;5005717;28;20041;-32
2023/07/03 00:09:47;;;;;;;15.43;7.20;;;;;;;23.78;42.64;100996.00;5001656;28;20077;-32
2023/07/03 00:12:14;;;;;;;19.10;7.47;;;;;;;23.77;42.91;100994.34;5008189;28;20050;-33
2023/07/03 00:14:41;;;;;;;15.38;6.10;;;;;;;23.77;42.56;100991.63;5003374;28;20403;-33
2023/07/03 00:17:07;;;;;;;14.48;5.82;;;;;;;23.77;43.09;100991.63;5001791;28;20500;-33
2023/07/03 00:19:34;;;;;;;17.25;6.25;;;;;;;23.76;42.77;100985.38;5009712;28;20046;-32
2023/07/03 00:22:01;;;;;;;15.77;6.32;;;;;;;23.75;42.72;100986.38;5007591;28;20058;-32
2023/07/03 00:24:30;;;;;;;15.98;6.40;;;;;;;23.75;42.66;100988.25;5006662;28;20454;-33
2023/07/03 00:26:57;;;;;;;14.50;6.00;;;;;;;23.74;42.91;100987.44;5006051;28;20140;-33
2023/07/03 00:29:24;;;;;;;16.55;6.15;;;;;;;23.74;43.03;100987.44;5004656;28;20096;-33
2023/07/03 00:31:51;;;;;;;17.05;6.68;;;;;;;23.74;43.01;100989.28;5004392;28;20050;-32
2023/07/03 00:34:18;;;;;;;12.90;6.15;;;;;;;23.73;42.54;100979.50;5005338;28;20046;-33
2023/07/03 00:36:46;;;;;;;18.33;6.28;;;;;;;23.72;42.83;100985.94;5004334;28;20129;-33
2023/07/03 00:39:14;;;;;;;19.48;6.25;;;;;;;23.72;42.75;100975.09;5001835;28;20042;-32
2023/07/03 00:41:42;;;;;;;14.05;5.63;;;;;;;23.72;43.08;100988.63;5003009;28;20085;-33
2023/07/03 00:44:14;;;;;;;16.83;6.18;;;;;;;23.70;43.30;100986.13;5006367;28;20495;-33
2023/07/03 00:46:43;;;;;;;15.93;6.00;;;;;;;23.70;42.92;100988.00;5005834;28;20438;-33
2023/07/03 00:49:11;;;;;;;17.88;6.18;;;;;;;23.69;42.78;100992.56;5004767;28;20046;-32
2023/07/03 00:51:42;;;;;;;16.00;5.85;;;;;;;23.68;43.00;100980.06;5002059;28;20062;-33
2023/07/03 00:54:09;;;;;;;14.90;5.57;;;;;;;23.68;43.18;100987.31;5006211;28;20082;-33
2023/07/03 00:56:35;;;;;;;16.23;5.50;;;;;;;23.67;42.93;100981.06;5005592;28;20042;-32
2023/07/03 00:59:03;;;;;;;15.43;6.45;;;;;;;23.66;43.38;100979.41;5003758;28;20129;-33
2023/07/03 01:01:36;;;;;;;12.43;5.00;;;;;;;23.65;42.90;100991.25;5005029;28;20711;-32
2023/07/03 01:04:09;;;;;;;16.30;5.15;;;;;;;23.64;42.98;100989.56;5005198;28;20064;-33
2023/07/03 01:06:42;;;;;;;18.02;6.05;;;;;;;23.64;43.17;100984.16;5004861;28;20377;-32
2023/07/03 01:09:12;;;;;;;12.80;5.07;;;;;;;23.63;43.11;100986.00;5002168;28;20077;-33
2023/07/03 01:11:39;;;;;;;12.25;5.65;;;;;;;23.63;43.55;100979.75;5004182;28;20077;-32
2023/07/03 01:14:09;;;;;;;14.98;5.70;;;;;;;23.61;43.12;100977.22;5002974;28;20534;-32
2023/07/03 01:16:37;;;;;;;14.65;5.13;;;;;;;23.61;43.56;100977.22;5003905;28;20089;-33
2023/07/03 01:19:10;;;;;;;14.75;5.85;;;;;;;23.60;43.59;100970.16;5003945;28;20403;-33
2023/07/03 01:21:58;;;;;;;14.73;5.60;;;;;;;23.58;43.59;100969.50;5004711;28;20137;-32
2023/07/03 01:24:47;;;;;;;12.10;5.35;;;;;;;23.59;43.58;100963.03;5003481;28;20073;-32
2023/07/03 01:27:19;;;;;;;14.13;5.60;;;;;;;23.59;43.58;100968.44;5006090;28;20046;-33
2023/07/03 01:29:50;;;;;;;17.58;6.53;;;;;;;23.58;43.33;100966.78;5006186;28;20061;-32
2023/07/03 01:32:24;;;;;;;16.45;5.75;;;;;;;23.57;43.23;100962.41;5006931;28;20062;-33
2023/07/03 01:34:53;;;;;;;16.67;6.10;;;;;;;23.57;43.36;100975.94;5004652;28;20069;-33
2023/07/03 01:37:24;;;;;;;14.60;6.03;;;;;;;23.56;43.32;100970.72;5013616;28;20057;-33
2023/07/03 01:39:51;;;;;;;13.05;5.38;;;;;;;23.55;43.68;100964.44;5006247;28;20050;-33
2023/07/03 01:42:21;;;;;;;15.60;4.68;;;;;;;23.55;43.75;100972.56;5009492;28;20053;-32
2023/07/03 01:44:48;;;;;;;13.32;5.78;;;;;;;23.55;43.40;100969.03;5009440;28;20112;-33
2023/07/03 01:47:15;;;;;;;13.25;5.10;;;;;;;23.54;43.77;100970.88;5007990;28;20084;-32
2023/07/03 01:49:42;;;;;;;14.73;5.25;;;;;;;23.53;43.31;100974.63;5007446;28;20111;-33
2023/07/03 01:52:30;;;;;;;14.60;5.28;;;;;;;23.52;44.05;100981.06;5007090;28;20093;-33
2023/07/03 01:55:06;;;;;;;12.93;5.65;;;;;;;23.53;43.47;100974.63;5002341;28;20060;-32
2023/07/03 01:57:38;;;;;;;13.32;4.57;;;;;;;23.52;43.48;100966.72;5003020;28;20082;-32
2023/07/03 02:00:09;;;;;;;12.15;4.78;;;;;;;23.51;44.11;100973.97;5002480;28;20050;-33
2023/07/03 02:02:37;;;;;;;14.35;5.68;;;;;;;23.51;44.03;100968.53;5006246;28;20160;-32
2023/07/03 02:05:12;;;;;;;13.38;5.05;;;;;;;23.50;44.04;100971.44;5000708;28;20093;-32
2023/07/03 02:07:41;;;;;;;12.93;4.93;;;;;;;23.49;43.63;100967.91;5003545;28;20085;-33
2023/07/03 02:10:08;;;;;;;11.48;4.63;;;;;;;23.49;43.91;100970.63;5002980;28;20140;-33
2023/07/03 02:12:34;;;;;;;12.68;4.93;;;;;;;23.50;43.89;100974.16;5001229;28;20085;-32
2023/07/03 02:15:03;;;;;;;13.95;5.05;;;;;;;23.49;43.96;100975.19;5001157;28;20354;-32
2023/07/03 02:17:30;;;;;;;14.38;5.68;;;;;;;23.49;43.92;100967.06;5002563;28;20120;-32
2023/07/03 02:19:57;;;;;;;14.82;5.75;;;;;;;23.48;43.76;100974.34;5003141;28;20129;-33
2023/07/03 02:22:23;;;;;;;10.40;5.07;;;;;;;23.48;43.66;100966.25;5002080;28;20049;-33
2023/07/03 02:24:50;;;;;;;13.93;5.47;;;;;;;23.48;43.71;100968.94;5001345;28;20057;-32
2023/07/03 02:27:19;;;;;;;14.05;4.75;;;;;;;23.48;44.23;100966.25;4998484;28;20105;-33
2023/07/03 02:29:47;;;;;;;10.75;5.10;;;;;;;23.47;43.58;100961.84;5032143;28;20376;-33
2023/07/03 02:32:13;;;;;;;14.73;5.22;;;;;;;23.47;44.00;100964.53;5002111;28;20505;-32
2023/07/03 02:34:40;;;;;;;10.27;4.30;;;;;;;23.47;43.49;100961.84;5004253;28;20081;-32
2023/07/03 02:37:09;;;;;;;13.75;4.90;;;;;;;23.47;43.73;100961.84;5004199;28;20050;-32
2023/07/03 02:39:36;;;;;;;12.38;5.20;;;;;;;23.48;44.06;100962.66;5000207;28;20049;-32
2023/07/03 02:42:03;;;;;;;12.88;4.60;;;;;;;23.47;43.90;100961.84;5000956;28;20304;-33
2023/07/03 02:44:29;;;;;;;12.55;5.10;;;;;;;23.48;44.19;100959.97;5000701;28;20430;-32
2023/07/03 02:46:56;;;;;;;15.90;5.57;;;;;;;23.47;43.96;100963.69;5000354;28;20312;-31
2023/07/03 02:49:27;;;;;;;10.38;4.65;;;;;;;23.48;44.27;100970.78;5001663;28;20173;-32
2023/07/03 02:51:53;;;;;;;12.10;4.57;;;;;;;23.47;43.96;100958.28;5000177;28;20069;-32
2023/07/03 02:54:20;;;;;;;11.98;4.72;;;;;;;23.46;44.11;100957.47;4999975;28;20145;-32
2023/07/03 02:56:46;;;;;;;12.50;5.18;;;;;;;23.46;43.81;100957.47;4999873;28;20511;-31
2023/07/03 02:59:14;;;;;;;11.88;4.75;;;;;;;23.45;44.04;100960.34;4998626;28;20129;-31
2023/07/03 03:01:42;;;;;;;13.23;4.93;;;;;;;23.46;44.27;100962.88;4999842;28;20169;-34
2023/07/03 03:04:09;;;;;;;10.77;5.15;;;;;;;23.46;44.36;100962.03;5000475;28;20492;-32
2023/07/03 03:06:36;;;;;;;8.57;4.20;;;;;;;23.46;44.27;100970.97;5001083;28;20444;-32
2023/07/03 03:09:05;;;;;;;11.27;5.07;;;;;;;23.46;43.88;100967.44;5004053;28;20461;-33
2023/07/03 03:11:31;;;;;;;10.90;4.20;;;;;;;23.46;44.33;100965.56;5004447;28;20049;-32
2023/07/03 03:13:58;;;;;;;13.07;4.70;;;;;;;23.45;44.11;100974.72;5003235;28;20054;-32
2023/07/03 03:16:24;;;;;;;12.63;4.82;;;;;;;23.45;44.50;100965.78;5003683;28;20092;-31
2023/07/03 03:18:51;;;;;;;8.63;4.10;;;;;;;23.45;44.09;100965.78;5004789;28;20401;-32
2023/07/03 03:21:18;;;;;;;12.05;5.05;;;;;;;23.44;44.54;100962.22;5006045;28;20353;-32
2023/07/03 03:23:45;;;;;;;11.95;4.70;;;;;;;23.44;44.20;100959.53;5005157;28;20563;-33
2023/07/03 03:26:13;;;;;;;9.38;4.32;;;;;;;23.44;44.24;100958.66;5004932;28;20050;-32
2023/07/03 03:28:39;;;;;;;9.50;4.22;;;;;;;23.43;44.41;100957.81;5004125;28;20090;-32
2023/07/03 03:31:06;;;;;;;9.73;4.07;;;;;;;23.43;44.33;100959.69;4997815;28;20058;-33
2023/07/03 03:33:32;;;;;;;9.93;4.20;;;;;;;23.43;44.24;100963.22;5001269;28;20050;-32
2023/07/03 03:35:59;;;;;;;11.02;4.63;;;;;;;23.42;44.71;100956.16;5006613;28;20054;-32
2023/07/03 03:38:26;;;;;;;9.60;3.88;;;;;;;23.41;44.56;100946.38;5006102;28;20137;-32
2023/07/03 03:40:55;;;;;;;10.70;4.32;;;;;;;23.40;44.23;100945.53;5004787;28;20108;-32
2023/07/03 03:43:22;;;;;;;9.02;4.22;;;;;;;23.40;44.26;100953.66;4999313;28;20096;-33
2023/07/03 03:46:00;;;;;;;11.95;4.57;;;;;;;23.39;44.71;100965.47;5002202;28;20081;-35
2023/07/03 03:48:28;;;;;;;8.68;4.03;;;;;;;23.40;44.74;100955.50;5001142;28;20088;-32
2023/07/03 03:50:55;;;;;;;9.82;4.15;;;;;;;23.40;44.51;100955.50;4999169;28;20148;-32
2023/07/03 03:53:23;;;;;;;9.43;3.78;;;;;;;23.39;44.13;100953.81;5001006;28;20360;-32
2023/07/03 03:55:51;;;;;;;10.95;4.07;;;;;;;23.38;44.27;100957.56;4996575;28;20450;-32
2023/07/03 03:58:19;;;;;;;7.30;3.88;;;;;;;23.39;44.59;100967.34;5000264;28;20073;-32
2023/07/03 04:00:46;;;;;;;6.65;3.38;;;;;;;23.38;44.73;100966.50;5003168;28;20294;-32
2023/07/03 04:03:13;;;;;;;9.45;3.60;;;;;;;23.39;44.17;100975.44;5000222;28;20105;-32
2023/07/03 04:05:41;;;;;;;11.43;4.32;;;;;;;23.37;44.26;100969.41;5000033;28;20077;-32
2023/07/03 04:08:09;;;;;;;9.10;4.13;;;;;;;23.37;44.28;100985.63;4998805;28;20089;-32
2023/07/03 04:10:36;;;;;;;9.48;3.38;;;;;;;23.37;44.76;100978.34;5001897;28;20430;-32
2023/07/03 04:13:03;;;;;;;9.15;3.88;;;;;;;23.36;43.93;100973.16;4999270;28;20177;-31
2023/07/03 04:15:35;;;;;;;8.35;3.35;;;;;;;23.35;44.38;100983.09;5001560;28;20057;-32
2023/07/03 04:18:02;;;;;;;7.45;3.60;;;;;;;23.36;44.39;100986.66;5001154;28;20061;-33
2023/07/03 04:20:28;;;;;;;5.70;3.08;;;;;;;23.36;44.80;100984.81;5000947;28;20498;-33
2023/07/03 04:22:55;;;;;;;7.03;3.45;;;;;;;23.35;44.50;100987.66;5000223;28;20045;-34
2023/07/03 04:25:22;;;;;;;9.55;3.90;;;;;;;23.34;44.68;100992.25;5005583;28;20058;-34
2023/07/03 04:27:49;;;;;;;6.70;2.97;;;;;;;23.34;44.72;100986.84;5002683;28;20041;-33
2023/07/03 04:30:15;;;;;;;7.72;3.45;;;;;;;23.34;44.58;100981.41;5000028;28;20144;-34
2023/07/03 04:32:42;;;;;;;5.88;3.08;;;;;;;23.34;44.14;100986.84;5000971;28;20052;-34
2023/07/03 04:35:09;;;;;;;6.18;3.45;;;;;;;23.34;44.59;100986.84;5001484;28;20509;-34
2023/07/03 04:37:36;;;;;;;10.10;3.78;;;;;;;23.33;44.42;100987.88;4999855;28;20092;-34
2023/07/03 04:40:04;;;;;;;7.35;3.70;;;;;;;23.34;44.41;100996.81;5001896;28;20114;-32
2023/07/03 04:42:31;;;;;;;6.32;3.17;;;;;;;23.33;44.29;100998.69;5000844;28;20053;-32
2023/07/03 04:45:00;;;;;;;6.22;3.38;;;;;;;23.34;44.47;100994.13;5000697;28;20054;-32
2023/07/03 04:47:27;;;;;;;6.05;3.03;;;;;;;23.34;44.22;100989.53;5002317;28;20047;-32
2023/07/03 04:49:55;;;;;;;6.45;3.22;;;;;;;23.33;44.60;100995.97;5002902;28;20039;-32
2023/07/03 04:52:27;;;;;;;7.80;3.50;;;;;;;23.34;44.24;100994.13;5002065;28;20058;-32
2023/07/03 04:54:54;;;;;;;5.90;2.97;;;;;;;23.33;44.83;100997.84;5001722;28;20088;-33
2023/07/03 04:57:21;;;;;;;4.90;2.83;;;;;;;23.33;44.42;101001.38;5006912;28;20097;-33
2023/07/03 04:59:48;;;;;;;6.75;3.20;;;;;;;23.34;44.59;101003.06;5005373;28;20426;-33
2023/07/03 05:02:18;;;;;;;5.80;2.53;;;;;;;23.33;44.36;100995.16;5007068;28;20065;-32
2023/07/03 05:04:45;;;;;;;8.05;3.20;;;;;;;23.34;44.04;100994.13;5005281;28;20101;-32
2023/07/03 05:07:12;;;;;;;6.45;3.03;;;;;;;23.34;44.09;101007.63;5008220;28;20042;-33
2023/07/03 05:09:39;;;;;;;7.47;3.00;;;;;;;23.34;44.26;101002.22;4998021;28;20063;-32
2023/07/03 05:12:06;;;;;;;4.68;2.58;;;;;;;23.34;43.98;101003.06;5003960;28;20425;-33
2023/07/03 05:14:35;;;;;;;5.90;2.97;;;;;;;23.35;43.90;101003.91;5003310;28;20046;-32
2023/07/03 05:17:02;;;;;;;9.05;3.65;;;;;;;23.35;44.31;101006.59;5004591;28;20122;-32
2023/07/03 05:19:29;;;;;;;6.47;2.92;;;;;;;23.35;44.39;101009.31;5003140;28;20053;-32
2023/07/03 05:21:55;;;;;;;6.70;3.00;;;;;;;23.35;44.29;100998.47;5003389;28;20133;-32
2023/07/03 05:24:22;;;;;;;11.52;3.35;;;;;;;23.35;44.17;101009.31;5004836;28;20042;-32
2023/07/03 05:26:48;;;;;;;5.85;2.83;;;;;;;23.35;44.34;101004.72;5002516;28;20050;-32
2023/07/03 05:29:15;;;;;;;7.38;3.05;;;;;;;23.36;44.31;101006.44;5004266;28;20216;-32
2023/07/03 05:31:44;;;;;;;6.82;2.17;;;;;;;23.36;44.44;101008.31;5004305;28;20042;-33
2023/07/03 05:34:11;;;;;;;5.13;2.53;;;;;;;23.35;44.06;101010.16;5007337;28;20115;-32
2023/07/03 05:36:38;;;;;;;6.10;2.53;;;;;;;23.36;43.94;101013.72;5006679;28;20042;-33
2023/07/03 05:39:04;;;;;;;7.47;2.53;;;;;;;23.36;44.38;101013.72;5002525;28;20326;-32
2023/07/03 05:41:31;;;;;;;5.80;2.33;;;;;;;23.36;44.00;101011.84;5001522;28;20133;-32
2023/07/03 05:43:58;;;;;;;6.72;2.30;;;;;;;23.37;43.84;101012.69;5008230;28;20081;-31
2023/07/03 05:46:24;;;;;;;6.40;2.55;;;;;;;23.37;43.86;101024.34;4999873;28;20154;-32
2023/07/03 05:48:51;;;;;;;8.25;2.75;;;;;;;23.38;43.97;101019.75;5006321;28;20042;-32
2023/07/03 05:51:17;;;;;;;5.07;2.58;;;;;;;23.38;43.87;101014.34;5002641;28;20078;-33
2023/07/03 05:53:44;;;;;;;6.22;2.80;;;;;;;23.38;44.17;101019.75;5004658;28;20333;-33
2023/07/03 05:56:11;;;;;;;4.75;2.08;;;;;;;23.38;44.15;101023.31;5000477;28;20138;-33
2023/07/03 05:58:37;;;;;;;9.52;3.58;;;;;;;23.38;44.21;101023.31;5004820;28;20053;-32
2023/07/03 06:01:04;;;;;;;6.88;2.53;;;;;;;23.39;44.09;101027.69;4999671;28;20450;-32
2023/07/03 06:03:31;;;;;;;5.95;2.65;;;;;;;23.38;43.70;101025.19;5005492;28;20461;-34
2023/07/03 06:05:59;;;;;;;7.75;2.97;;;;;;;23.39;44.18;101029.56;5009366;28;20050;-33
2023/07/03 06:08:25;;;;;;;7.47;2.90;;;;;;;23.38;43.96;101025.19;5005459;28;20073;-32
2023/07/03 06:10:52;;;;;;;7.25;3.03;;;;;;;23.39;43.67;101029.56;5001608;28;20042;-33
2023/07/03 06:13:19;;;;;;;5.90;2.78;;;;;;;23.40;43.62;101033.97;5003611;28;20057;-33
2023/07/03 06:15:45;;;;;;;11.77;3.20;;;;;;;23.39;44.01;101033.09;5002781;28;20073;-33
2023/07/03 06:18:12;;;;;;;14.27;5.80;;;;;;;23.40;43.95;101031.25;5001887;28;20045;-34
2023/07/03 06:20:39;;;;;;;12.73;6.60;;;;;;;23.40;44.02;101026.69;5002532;28;20046;-34
2023/07/03 06:23:05;;;;;;;16.17;7.03;;;;;;;23.40;43.69;101029.38;5002193;28;20409;-34
2023/07/03 06:25:32;;;;;;;23.65;8.50;;;;;;;23.41;43.58;101027.50;4999071;28;20059;-33
2023/07/03 06:27:59;;;;;;;21.58;8.48;;;;;;;23.41;43.52;101024.81;5033043;28;20057;-34
2023/07/03 06:30:26;;;;;;;19.70;8.32;;;;;;;23.41;43.09;101032.94;4998871;28;20116;-35
2023/07/03 06:32:52;;;;;;;16.40;7.93;;;;;;;23.43;43.38;101024.63;5003845;28;20050;-32
2023/07/03 06:35:19;;;;;;;15.75;7.53;;;;;;;23.44;43.36;101027.16;5003027;28;20442;-34
2023/07/03 06:37:46;;;;;;;24.63;9.27;;;;;;;23.45;43.41;101025.28;4995840;28;20049;-32
2023/07/03 06:40:15;;;;;;;22.15;9.02;;;;;;;23.46;43.33;101021.56;5003156;28;20046;-34
2023/07/03 06:42:42;;;;;;;17.48;8.55;;;;;;;23.46;43.57;101026.97;5001763;28;20434;-35
2023/07/03 06:45:09;;;;;;;22.52;8.40;;;;;;;23.48;43.29;101035.72;5006067;28;20054;-35
2023/07/03 06:47:36;;;;;;;20.15;9.02;;;;;;;23.49;43.79;101026.59;5001028;28;20668;-34
2023/07/03 06:50:03;;;;;;;19.77;9.43;;;;;;;23.50;43.40;101034.50;5000988;28;20157;-34
2023/07/03 06:52:33;;;;;;;21.35;9.70;;;;;;;23.51;43.54;101040.75;5000573;28;20049;-33
2023/07/03 06:55:00;;;;;;;19.63;9.98;;;;;;;23.52;42.97;101032.47;5002378;28;20336;-32
2023/07/03 06:57:27;;;;;;;23.10;10.23;;;;;;;23.51;43.48;101038.91;4998326;28;20430;-34
2023/07/03 06:59:53;;;;;;;23.05;10.40;;;;;;;23.52;43.38;101029.78;5002752;28;20048;-34
2023/07/03 07:02:20;;;;;;;25.38;11.13;;;;;;;23.52;43.30;101040.59;4995936;28;20058;-34
2023/07/03 07:04:47;;;;;;;25.83;10.65;;;;;;;23.53;43.53;101042.28;5000953;28;20101;-35
2023/07/03 07:07:14;;;;;;;24.40;10.38;;;;;;;23.53;43.00;101038.72;5000003;28;20054;-34
2023/07/03 07:09:40;;;;;;;21.17;10.38;;;;;;;23.54;43.35;101046.66;5000304;28;20050;-33
2023/07/03 07:12:07;;;;;;;25.05;10.68;;;;;;;23.54;43.43;101041.25;4998120;28;20042;-34
2023/07/03 07:14:34;;;;;;;22.30;10.88;;;;;;;23.54;43.64;101045.81;5005855;28;20046;-33
2023/07/03 07:17:00;;;;;;;21.70;9.65;;;;;;;23.54;43.37;101038.53;5003654;28;20053;-34
2023/07/03 07:19:27;;;;;;;25.35;10.57;;;;;;;23.55;43.38;101048.31;5003917;28;20080;-34
2023/07/03 07:21:54;;;;;;;20.60;11.25;;;;;;;23.55;42.98;101045.63;5003444;28;20088;-34
2023/07/03 07:24:23;;;;;;;24.00;11.38;;;;;;;23.57;43.04;101051.69;5006763;28;20100;-34
2023/07/03 07:26:54;;;;;;;19.85;10.45;;;;;;;23.59;42.91;101056.91;5006565;28;20400;-34
2023/07/03 07:29:24;;;;;;;25.15;11.63;;;;;;;23.60;43.07;101055.91;5010090;28;20050;-33
2023/07/03 07:31:55;;;;;;;19.60;10.65;;;;;;;23.60;42.84;101048.63;5006610;28;20041;-32
2023/07/03 07:34:23;;;;;;;19.35;10.07;;;;;;;23.61;42.72;101046.75;5009946;28;20046;-32
2023/07/03 07:36:50;;;;;;;21.85;10.20;;;;;;;23.62;42.95;101051.13;5005823;28;20057;-32
2023/07/03 07:39:19;;;;;;;18.60;9.70;;;;;;;23.62;42.95;101051.97;5002450;28;20124;-32
2023/07/03 07:41:46;;;;;;;21.65;10.98;;;;;;;23.63;42.71;101055.50;5010018;28;20314;-32
2023/07/03 07:44:12;;;;;;;16.75;10.15;;;;;;;23.63;43.07;101050.09;5007573;28;20495;-32
2023/07/03 07:46:39;;;;;;;19.05;10.75;;;;;;;23.64;43.29;101055.34;5002794;28;20090;-34
2023/07/03 07:49:06;;;;;;;20.77;10.18;;;;;;;23.64;43.07;101047.22;5002056;28;20489;-33
2023/07/03 07:51:32;;;;;;;21.13;10.27;;;;;;;23.65;42.93;101056.19;5001009;28;20430;-32
2023/07/03 07:53:59;;;;;;;18.80;9.55;;;;;;;23.65;42.74;101061.59;5003078;28;20072;-33
2023/07/03 07:56:27;;;;;;;20.88;10.57;;;;;;;23.66;42.61;101062.47;5003229;28;20056;-32
2023/07/03 07:58:56;;;;;;;18.83;9.88;;;;;;;23.66;42.91;101068.72;5000826;28;20392;-32
2023/07/03 08:01:23;;;;;;;19.92;9.63;;;;;;;23.65;43.00;101064.31;5002676;28;20129;-34
2023/07/03 08:03:50;;;;;;;14.68;9.00;;;;;;;23.65;43.08;101058.88;5003051;28;20050;-32
2023/07/03 08:06:16;;;;;;;18.17;9.20;;;;;;;23.64;42.99;101058.06;4999847;28;20045;-32
2023/07/03 08:08:43;;;;;;;17.05;9.68;;;;;;;23.66;42.70;101057.88;5000655;28;20054;-32
2023/07/03 08:11:10;;;;;;;19.10;9.02;;;;;;;23.66;42.60;101052.47;4998362;28;20508;-32
2023/07/03 08:13:39;;;;;;;17.88;8.82;;;;;;;23.68;43.20;101065.81;4998146;28;20050;-32
2023/07/03 08:16:08;;;;;;;15.00;9.20;;;;;;;23.69;42.79;101070.22;5002034;28;20061;-33
2023/07/03 08:18:35;;;;;;;14.25;8.07;;;;;;;23.70;42.77;101074.59;4998033;28;20050;-32
2023/07/03 08:21:02;;;;;;;14.68;7.90;;;;;;;23.70;42.90;101077.31;5005235;28;20050;-33
2023/07/03 08:23:30;;;;;;;13.32;8.07;;;;;;;23.70;43.02;101071.88;5002406;28;20058;-32
2023/07/03 08:25:58;;;;;;;16.10;8.07;;;;;;;23.71;42.15;101076.28;5002297;28;20374;-32
2023/07/03 08:28:25;;;;;;;13.70;8.10;;;;;;;23.69;42.58;101075.63;5001451;28;20497;-33
2023/07/03 08:30:52;;;;;;;14.52;7.40;;;;;;;23.70;42.30;101078.13;5033524;28;20105;-33
2023/07/03 08:33:18;;;;;;;13.65;7.40;;;;;;;23.70;43.07;101077.31;5004872;28;20440;-33
2023/07/03 08:35:46;;;;;;;14.57;7.60;;;;;;;23.73;42.75;101085.06;5000434;28;20685;-33
2023/07/03 08:38:16;;;;;;;15.50;7.57;;;;;;;23.74;42.73;101084.03;5000882;28;20058;-32
2023/07/03 08:40:42;;;;;;;14.13;7.45;;;;;;;23.75;42.65;101083.00;5004487;28;20042;-32
2023/07/03 08:43:19;;;;;;;13.45;6.68;;;;;;;23.76;42.74;101077.41;5002048;28;20108;-32
2023/07/03 08:45:48;;;;;;;15.85;7.38;;;;;;;23.77;42.20;101079.09;5001541;28;20386;-33
2023/07/03 08:48:22;;;;;;;13.95;7.40;;;;;;;23.77;42.16;101089.91;5004467;28;20069;-32
2023/07/03 08:50:52;;;;;;;11.40;6.30;;;;;;;23.77;42.63;101087.22;5005923;28;20483;-33
2023/07/03 08:53:26;;;;;;;11.10;6.72;;;;;;;23.78;42.84;101088.88;5002553;28;20076;-37
2023/07/03 08:55:57;;;;;;;13.20;5.80;;;;;;;23.79;42.72;101079.72;5006874;28;20058;-33
2023/07/03 08:58:25;;;;;;;12.23;5.82;;;;;;;23.81;42.61;101084.97;5006202;28;20042;-32
2023/07/03 09:01:26;;;;;;;13.35;5.70;;;;;;;23.84;42.34;101092.69;5009177;28;20113;-33
2023/07/03 09:04:25;;;;;;;12.50;6.35;;;;;;;23.86;42.40;101093.38;5006545;28;20141;-32
2023/07/03 09:06:56;;;;;;;13.20;6.28;;;;;;;23.88;42.56;101099.44;5004341;28;20065;-33
2023/07/03 09:09:30;;;;;;;9.05;5.53;;;;;;;23.88;42.18;101092.16;4999698;28;20050;-32
2023/07/03 09:12:19;;;;;;;11.13;5.57;;;;;;;23.90;42.19;101100.09;5002955;28;20081;-33
2023/07/03 09:14:58;;;;;;;9.65;5.18;;;;;;;23.92;42.15;101102.59;5007333;28;20100;-33
2023/07/03 09:17:26;;;;;;;11.23;5.40;;;;;;;23.92;41.92;101095.34;5006873;28;20042;-32
2023/07/03 09:19:55;;;;;;;11.70;5.35;;;;;;;23.94;42.33;101100.56;5007827;28;20046;-32
2023/07/03 09:22:37;;;;;;;10.70;5.07;;;;;;;23.93;42.27;101097.00;5001843;28;20376;-31
2023/07/03 09:25:06;;;;;;;12.00;5.43;;;;;;;23.94;42.47;101117.63;5004667;28;20092;-31
2023/07/03 09:27:32;;;;;;;10.15;5.20;;;;;;;23.94;41.95;101119.50;5002804;28;20037;-31
2023/07/03 09:30:02;;;;;;;8.73;4.55;;;;;;;23.92;42.25;101117.00;5001623;28;20058;-32
2023/07/03 09:32:31;;;;;;;12.25;4.93;;;;;;;23.92;41.88;101116.13;5003710;28;20054;-33
2023/07/03 09:35:07;;;;;;;9.23;4.70;;;;;;;23.91;42.50;101119.88;5007236;28;20528;-32
2023/07/03 09:37:40;;;;;;;9.45;4.88;;;;;;;23.90;41.98;101113.63;5001997;28;20068;-32
2023/07/03 09:40:14;;;;;;;10.90;4.85;;;;;;;23.88;42.08;101110.28;5008628;28;20038;-32
2023/07/03 09:42:41;;;;;;;;;;;;;;;23.86;42.46;101113.16;5008428;28;20045;-31
2023/07/03 09:45:16;;;;;;;9.25;4.57;;;;;;;23.89;42.04;101111.94;5005440;28;19929;-33
2023/07/03 09:48:00;;;;;;;7.85;4.28;;;;;;;23.86;42.19;101115.03;5002760;28;20391;-33
2023/07/03 09:50:30;;;;;;;8.07;4.00;;;;;;;23.86;42.52;101120.44;5002842;28;20045;-31
2023/07/03 09:52:57;;;;;;;13.20;4.60;;;;;;;23.85;41.99;101116.91;5001086;28;20181;-31
2023/07/03 09:55:35;;;;;;;9.98;4.25;;;;;;;23.84;42.22;101125.19;5002421;28;20332;-32
2023/07/03 09:58:12;;;;;;;9.23;4.50;;;;;;;23.84;42.51;101127.88;5004050;28;20129;-34
2023/07/03 10:00:48;;;;;;;9.00;4.05;;;;;;;23.85;42.71;101127.72;5004101;28;20038;-32
2023/07/03 10:03:26;;;;;;;9.23;4.55;;;;;;;23.86;42.30;101136.69;5001217;28;20378;-32
2023/07/03 10:06:24;;;;;;;16.10;5.97;;;;;;;23.87;42.55;101124.81;5004158;28;20155;-32
2023/07/03 10:09:00;;;;;;;14.27;6.22;;;;;;;23.90;42.50;101119.03;5001245;28;20057;-32
2023/07/03 10:11:48;;;;;;;12.07;5.53;;;;;;;23.89;42.47;101120.06;4999724;28;20050;-32
2023/07/03 10:14:27;;;;;;;11.77;5.35;;;;;;;23.90;42.68;101124.47;5003300;28;20109;-33
2023/07/03 10:16:55;;;;;;;15.02;6.25;;;;;;;23.91;42.05;101120.72;4998896;28;20080;-32
2023/07/03 10:19:22;;;;;;;14.07;6.63;;;;;;;23.94;42.43;101127.63;5002334;28;20058;-31
2023/07/03 10:21:50;;;;;;;16.45;6.78;;;;;;;23.95;42.32;101126.59;5002193;28;20254;-31
2023/07/03 10:24:17;;;;;;;22.80;8.60;;;;;;;23.99;41.80;101120.63;4996361;28;20418;-32
2023/07/03 10:26:52;;;;;;;21.35;8.60;;;;;;;24.02;42.26;101122.97;5002300;28;20101;-31
2023/07/03 10:29:25;;;;;;;25.85;9.52;;;;;;;24.05;42.12;101125.31;5000483;28;20111;-31
2023/07/03 10:32:01;;;;;;;19.90;7.68;;;;;;;24.06;41.90;101126.97;5002312;28;20306;-31
2023/07/03 10:35:06;;;;;;;24.20;7.68;;;;;;;24.08;41.79;101124.06;5004732;28;20136;-30
2023/07/03 10:37:43;;;;;;;17.63;6.47;;;;;;;24.09;41.53;101126.63;5000023;28;20060;-32
2023/07/03 10:40:27;;;;;;;18.40;5.97;;;;;;;24.11;41.15;101129.97;5002296;28;20058;-31
2023/07/03 10:42:56;;;;;;;;;;;;;;;24.11;41.27;101119.13;5001565;28;20416;-32
2023/07/03 10:45:25;;;;;;;15.10;6.25;;;;;;;24.15;41.49;101130.44;5002538;28;19925;-33
2023/07/03 10:48:01;;;;;;;13.23;5.00;;;;;;;24.14;40.89;101135.00;4998462;28;20054;-31
2023/07/03 10:50:36;;;;;;;11.05;4.03;;;;;;;24.13;40.95;101133.34;5004184;28;20054;-30
2023/07/03 10:53:23;;;;;;;12.68;4.20;;;;;;;24.14;41.41;101136.88;5001243;28;20117;-31
2023/07/03 10:55:58;;;;;;;11.02;3.63;;;;;;;24.12;40.70;101131.66;5003617;28;20086;-31
2023/07/03 10:58:37;;;;;;;13.68;4.47;;;;;;;24.12;40.72;101137.09;4998513;28;20058;-31
2023/07/03 11:01:16;;;;;;;9.07;3.20;;;;;;;24.13;40.80;101137.91;4997719;28;20046;-31
2023/07/03 11:03:52;;;;;;;13.07;3.83;;;;;;;24.12;41.19;101119.97;5003722;28;20046;-31
2023/07/03 11:06:48;;;;;;;12.93;3.92;;;;;;;24.12;40.45;101130.78;5001092;28;20505;-31
2023/07/03 11:09:21;;;;;;;15.60;4.07;;;;;;;24.12;41.05;101136.22;5000916;28;20111;-31
2023/07/03 11:12:11;;;;;;;11.13;3.45;;;;;;;24.11;40.60;101142.66;5002287;28;20042;-31
2023/07/03 11:14:51;;;;;;;11.52;3.45;;;;;;;24.12;40.87;101141.63;5001306;28;20070;-31
2023/07/03 11:17:38;;;;;;;12.50;4.90;;;;;;;24.12;40.44;101147.91;5002205;28;20053;-31
2023/07/03 11:20:24;;;;;;;10.95;5.28;;;;;;;24.14;40.84;101151.25;4985041;28;20057;-36
2023/07/03 11:22:56;;;;;;;15.52;6.20;;;;;;;24.14;40.42;101151.25;4991171;28;20462;-33
2023/07/03 11:25:40;;;;;;;15.23;6.05;;;;;;;24.14;40.34;101151.25;4992671;28;20050;-34
2023/07/03 11:28:41;;;;;;;16.30;5.80;;;;;;;24.15;39.89;101146.69;4992437;28;21960;-33
2023/07/03 11:31:09;;;;;;;13.93;5.85;;;;;;;24.18;40.36;101143.59;4995938;28;20052;-33